sensor_id;sensor_type;location;lat;lon;timestamp;temperature;humidity
32400;DHT22;45045;45.440;9.178;2023-05-07T00:00:29;25.90;78.80
32400;DHT22;45045;45.440;9.178;2023-05-07T00:02:55;25.90;79.10
32400;DHT22;45045;45.440;9.178;2023-05-07T00:05:21;25.90;79.30
32400;DHT22;45045;45.440;9.178;2023-05-07T00:07:47;25.90;79.80
32400;DHT22;45045;45.440;9.178;2023-05-07T00:10:13;25.90;80.10
32400;DHT22;45045;45.440;9.178;2023-05-07T00:12:40;25.80;79.60
32400;DHT22;45045;45.440;9.178;2023-05-07T00:15:07;25.80;80.10
32400;DHT22;45045;45.440;9.178;2023-05-07T00:17:33;25.90;80.10
32400;DHT22;45045;45.440;9.178;2023-05-07T00:19:59;25.80;79.20
32400;DHT22;45045;45.440;9.178;2023-05-07T00:22:25;25.80;79.90
32400;DHT22;45045;45.440;9.178;2023-05-07T00:24:50;25.80;79.50
32400;DHT22;45045;45.440;9.178;2023-05-07T00:27:16;25.80;78.70
32400;DHT22;45045;45.440;9.178;2023-05-07T00:29:42;25.90;79.10
32400;DHT22;45045;45.440;9.178;2023-05-07T00:32:08;25.90;79.00
32400;DHT22;45045;45.440;9.178;2023-05-07T00:34:34;25.90;78.80
32400;DHT22;45045;45.440;9.178;2023-05-07T00:37:00;25.80;78.30
32400;DHT22;45045;45.440;9.178;2023-05-07T00:39:26;25.80;77.00
32400;DHT22;45045;45.440;9.178;2023-05-07T00:41:52;25.80;78.20
32400;DHT22;45045;45.440;9.178;2023-05-07T00:44:18;25.80;78.70
32400;DHT22;45045;45.440;9.178;2023-05-07T00:46:43;25.80;79.00
32400;DHT22;45045;45.440;9.178;2023-05-07T00:49:15;25.70;77.90
32400;DHT22;45045;45.440;9.178;2023-05-07T00:51:41;25.80;78.70
32400;DHT22;45045;45.440;9.178;2023-05-07T00:54:08;25.80;78.70
32400;DHT22;45045;45.440;9.178;2023-05-07T00:56:34;25.80;78.70
32400;DHT22;45045;45.440;9.178;2023-05-07T00:59:01;25.70;78.70
32400;DHT22;45045;45.440;9.178;2023-05-07T01:01:28;25.70;78.60
32400;DHT22;45045;45.440;9.178;2023-05-07T01:03:54;25.70;78.50
32400;DHT22;45045;45.440;9.178;2023-05-07T01:06:21;25.70;78.60
32400;DHT22;45045;45.440;9.178;2023-05-07T01:08:48;25.70;78.80
32400;DHT22;45045;45.440;9.178;2023-05-07T01:11:17;25.60;78.70
32400;DHT22;45045;45.440;9.178;2023-05-07T01:13:45;25.60;78.50
32400;DHT22;45045;45.440;9.178;2023-05-07T01:16:11;25.60;78.60
32400;DHT22;45045;45.440;9.178;2023-05-07T01:18:36;25.60;78.90
32400;DHT22;45045;45.440;9.178;2023-05-07T01:21:04;25.60;79.50
32400;DHT22;45045;45.440;9.178;2023-05-07T01:23:30;25.60;79.00
32400;DHT22;45045;45.440;9.178;2023-05-07T01:25:56;25.60;78.90
32400;DHT22;45045;45.440;9.178;2023-05-07T01:28:22;25.60;78.80
32400;DHT22;45045;45.440;9.178;2023-05-07T01:30:51;25.60;78.60
32400;DHT22;45045;45.440;9.178;2023-05-07T01:33:20;25.60;78.40
32400;DHT22;45045;45.440;9.178;2023-05-07T01:35:51;25.50;78.20
32400;DHT22;45045;45.440;9.178;2023-05-07T01:38:18;25.60;78.60
32400;DHT22;45045;45.440;9.178;2023-05-07T01:40:44;25.60;78.40
32400;DHT22;45045;45.440;9.178;2023-05-07T01:43:10;25.60;78.70
32400;DHT22;45045;45.440;9.178;2023-05-07T01:45:36;25.50;78.70
32400;DHT22;45045;45.440;9.178;2023-05-07T01:48:03;25.50;78.00
32400;DHT22;45045;45.440;9.178;2023-05-07T01:50:30;25.50;78.30
32400;DHT22;45045;45.440;9.178;2023-05-07T01:52:56;25.60;77.50
32400;DHT22;45045;45.440;9.178;2023-05-07T01:55:22;25.40;76.90
32400;DHT22;45045;45.440;9.178;2023-05-07T01:57:49;25.30;79.10
32400;DHT22;45045;45.440;9.178;2023-05-07T02:00:15;25.40;79.10
32400;DHT22;45045;45.440;9.178;2023-05-07T02:02:41;25.40;79.20
32400;DHT22;45045;45.440;9.178;2023-05-07T02:05:07;25.40;78.80
32400;DHT22;45045;45.440;9.178;2023-05-07T02:07:32;25.30;79.10
32400;DHT22;45045;45.440;9.178;2023-05-07T02:09:58;25.40;79.30
32400;DHT22;45045;45.440;9.178;2023-05-07T02:12:24;25.30;79.90
32400;DHT22;45045;45.440;9.178;2023-05-07T02:14:50;25.30;79.30
32400;DHT22;45045;45.440;9.178;2023-05-07T02:17:15;25.30;78.80
32400;DHT22;45045;45.440;9.178;2023-05-07T02:19:41;25.30;79.40
32400;DHT22;45045;45.440;9.178;2023-05-07T02:22:07;25.30;77.60
32400;DHT22;45045;45.440;9.178;2023-05-07T02:24:33;25.20;79.70
32400;DHT22;45045;45.440;9.178;2023-05-07T02:26:59;25.20;79.40
32400;DHT22;45045;45.440;9.178;2023-05-07T02:29:25;25.20;80.10
32400;DHT22;45045;45.440;9.178;2023-05-07T02:31:50;25.20;80.40
32400;DHT22;45045;45.440;9.178;2023-05-07T02:34:19;25.10;80.10
32400;DHT22;45045;45.440;9.178;2023-05-07T02:36:44;25.10;80.90
32400;DHT22;45045;45.440;9.178;2023-05-07T02:39:11;25.10;78.20
32400;DHT22;45045;45.440;9.178;2023-05-07T02:41:37;24.90;78.90
32400;DHT22;45045;45.440;9.178;2023-05-07T02:44:03;25.00;79.80
32400;DHT22;45045;45.440;9.178;2023-05-07T02:46:29;24.90;77.30
32400;DHT22;45045;45.440;9.178;2023-05-07T02:48:55;25.00;79.30
32400;DHT22;45045;45.440;9.178;2023-05-07T02:51:21;24.90;80.40
32400;DHT22;45045;45.440;9.178;2023-05-07T02:53:47;24.90;77.80
32400;DHT22;45045;45.440;9.178;2023-05-07T02:56:13;24.90;79.50
32400;DHT22;45045;45.440;9.178;2023-05-07T02:58:39;24.90;79.70
32400;DHT22;45045;45.440;9.178;2023-05-07T03:01:05;25.00;78.90
32400;DHT22;45045;45.440;9.178;2023-05-07T03:03:31;24.90;78.30
32400;DHT22;45045;45.440;9.178;2023-05-07T03:05:57;25.00;79.90
32400;DHT22;45045;45.440;9.178;2023-05-07T03:08:23;24.90;79.10
32400;DHT22;45045;45.440;9.178;2023-05-07T03:10:49;24.90;78.20
32400;DHT22;45045;45.440;9.178;2023-05-07T03:13:15;24.90;80.80
32400;DHT22;45045;45.440;9.178;2023-05-07T03:15:40;24.90;80.40
32400;DHT22;45045;45.440;9.178;2023-05-07T03:18:06;24.90;79.10
32400;DHT22;45045;45.440;9.178;2023-05-07T03:20:32;24.90;80.20
32400;DHT22;45045;45.440;9.178;2023-05-07T03:22:58;24.90;80.10
32400;DHT22;45045;45.440;9.178;2023-05-07T03:25:23;25.00;79.80
32400;DHT22;45045;45.440;9.178;2023-05-07T03:27:49;25.00;80.80
32400;DHT22;45045;45.440;9.178;2023-05-07T03:30:15;24.90;81.00
32400;DHT22;45045;45.440;9.178;2023-05-07T03:32:41;24.90;81.10
32400;DHT22;45045;45.440;9.178;2023-05-07T03:35:07;25.00;79.90
32400;DHT22;45045;45.440;9.178;2023-05-07T03:37:33;24.90;81.00
32400;DHT22;45045;45.440;9.178;2023-05-07T03:39:58;24.90;81.20
32400;DHT22;45045;45.440;9.178;2023-05-07T03:42:24;25.00;81.50
32400;DHT22;45045;45.440;9.178;2023-05-07T03:44:50;24.90;81.40
32400;DHT22;45045;45.440;9.178;2023-05-07T03:47:16;24.90;81.80
32400;DHT22;45045;45.440;9.178;2023-05-07T03:49:41;24.90;81.70
32400;DHT22;45045;45.440;9.178;2023-05-07T03:52:07;24.90;81.80
32400;DHT22;45045;45.440;9.178;2023-05-07T03:54:33;24.90;82.10
32400;DHT22;45045;45.440;9.178;2023-05-07T03:56:58;24.80;81.90
32400;DHT22;45045;45.440;9.178;2023-05-07T03:59:24;24.90;82.00
32400;DHT22;45045;45.440;9.178;2023-05-07T04:01:50;24.80;82.60
32400;DHT22;45045;45.440;9.178;2023-05-07T04:04:16;24.90;82.60
32400;DHT22;45045;45.440;9.178;2023-05-07T04:06:42;24.80;82.30
32400;DHT22;45045;45.440;9.178;2023-05-07T04:09:08;24.80;82.20
32400;DHT22;45045;45.440;9.178;2023-05-07T04:11:34;24.80;82.30
32400;DHT22;45045;45.440;9.178;2023-05-07T04:14:00;24.60;82.70
32400;DHT22;45045;45.440;9.178;2023-05-07T04:16:26;24.50;83.10
32400;DHT22;45045;45.440;9.178;2023-05-07T04:18:52;24.60;83.20
32400;DHT22;45045;45.440;9.178;2023-05-07T04:21:19;24.50;83.90
32400;DHT22;45045;45.440;9.178;2023-05-07T04:23:46;24.60;83.60
32400;DHT22;45045;45.440;9.178;2023-05-07T04:26:12;24.60;82.80
32400;DHT22;45045;45.440;9.178;2023-05-07T04:28:38;24.60;83.30
32400;DHT22;45045;45.440;9.178;2023-05-07T04:31:04;24.60;82.90
32400;DHT22;45045;45.440;9.178;2023-05-07T04:33:31;24.50;82.90
32400;DHT22;45045;45.440;9.178;2023-05-07T04:35:57;24.60;84.10
32400;DHT22;45045;45.440;9.178;2023-05-07T04:38:22;24.60;82.90
32400;DHT22;45045;45.440;9.178;2023-05-07T04:40:49;24.60;83.90
32400;DHT22;45045;45.440;9.178;2023-05-07T04:43:15;24.40;84.00
32400;DHT22;45045;45.440;9.178;2023-05-07T04:45:41;24.50;84.40
32400;DHT22;45045;45.440;9.178;2023-05-07T04:48:08;24.50;83.00
32400;DHT22;45045;45.440;9.178;2023-05-07T04:50:34;24.50;83.50
32400;DHT22;45045;45.440;9.178;2023-05-07T04:53:00;24.50;83.70
32400;DHT22;45045;45.440;9.178;2023-05-07T04:55:26;24.50;83.40
32400;DHT22;45045;45.440;9.178;2023-05-07T04:57:53;24.40;83.30
32400;DHT22;45045;45.440;9.178;2023-05-07T05:00:18;24.40;83.90
32400;DHT22;45045;45.440;9.178;2023-05-07T05:02:45;24.50;83.10
32400;DHT22;45045;45.440;9.178;2023-05-07T05:05:11;24.50;84.30
32400;DHT22;45045;45.440;9.178;2023-05-07T05:07:37;24.50;84.90
32400;DHT22;45045;45.440;9.178;2023-05-07T05:10:04;24.60;83.80
32400;DHT22;45045;45.440;9.178;2023-05-07T05:12:31;24.60;84.10
32400;DHT22;45045;45.440;9.178;2023-05-07T05:14:57;24.60;84.10
32400;DHT22;45045;45.440;9.178;2023-05-07T05:17:23;24.60;84.00
32400;DHT22;45045;45.440;9.178;2023-05-07T05:19:49;24.60;84.00
32400;DHT22;45045;45.440;9.178;2023-05-07T05:22:15;24.60;83.40
32400;DHT22;45045;45.440;9.178;2023-05-07T05:24:40;24.60;83.70
32400;DHT22;45045;45.440;9.178;2023-05-07T05:27:06;24.60;84.00
32400;DHT22;45045;45.440;9.178;2023-05-07T05:29:32;24.70;84.20
32400;DHT22;45045;45.440;9.178;2023-05-07T05:31:58;24.70;83.90
32400;DHT22;45045;45.440;9.178;2023-05-07T05:34:23;24.60;84.00
32400;DHT22;45045;45.440;9.178;2023-05-07T05:36:49;24.70;84.10
32400;DHT22;45045;45.440;9.178;2023-05-07T05:39:15;24.70;84.20
32400;DHT22;45045;45.440;9.178;2023-05-07T05:41:41;24.70;84.20
32400;DHT22;45045;45.440;9.178;2023-05-07T05:44:06;24.70;84.20
32400;DHT22;45045;45.440;9.178;2023-05-07T05:46:32;24.70;84.20
32400;DHT22;45045;45.440;9.178;2023-05-07T05:48:58;24.60;84.30
32400;DHT22;45045;45.440;9.178;2023-05-07T05:51:24;24.60;84.50
32400;DHT22;45045;45.440;9.178;2023-05-07T05:53:49;24.60;84.40
32400;DHT22;45045;45.440;9.178;2023-05-07T05:56:16;24.70;84.40
32400;DHT22;45045;45.440;9.178;2023-05-07T05:58:41;24.70;84.40
32400;DHT22;45045;45.440;9.178;2023-05-07T06:01:07;24.60;84.70
32400;DHT22;45045;45.440;9.178;2023-05-07T06:03:33;24.60;84.90
32400;DHT22;45045;45.440;9.178;2023-05-07T06:05:59;24.70;84.80
32400;DHT22;45045;45.440;9.178;2023-05-07T06:08:28;24.70;84.80
32400;DHT22;45045;45.440;9.178;2023-05-07T06:10:54;24.70;84.90
32400;DHT22;45045;45.440;9.178;2023-05-07T06:13:20;24.70;84.90
32400;DHT22;45045;45.440;9.178;2023-05-07T06:15:46;24.70;84.90
32400;DHT22;45045;45.440;9.178;2023-05-07T06:18:12;24.70;84.60
32400;DHT22;45045;45.440;9.178;2023-05-07T06:20:37;24.70;84.80
32400;DHT22;45045;45.440;9.178;2023-05-07T06:23:03;24.70;84.70
32400;DHT22;45045;45.440;9.178;2023-05-07T06:25:29;24.70;85.00
32400;DHT22;45045;45.440;9.178;2023-05-07T06:27:54;24.70;85.10
32400;DHT22;45045;45.440;9.178;2023-05-07T06:30:20;24.70;85.10
32400;DHT22;45045;45.440;9.178;2023-05-07T06:32:46;24.70;85.10
32400;DHT22;45045;45.440;9.178;2023-05-07T06:35:12;24.70;85.10
32400;DHT22;45045;45.440;9.178;2023-05-07T06:37:38;24.70;85.10
32400;DHT22;45045;45.440;9.178;2023-05-07T06:40:05;24.70;85.20
32400;DHT22;45045;45.440;9.178;2023-05-07T06:42:32;24.80;85.20
32400;DHT22;45045;45.440;9.178;2023-05-07T06:44:58;24.70;85.20
32400;DHT22;45045;45.440;9.178;2023-05-07T06:47:24;24.60;85.50
32400;DHT22;45045;45.440;9.178;2023-05-07T06:49:49;24.70;85.70
32400;DHT22;45045;45.440;9.178;2023-05-07T06:52:15;24.70;85.50
32400;DHT22;45045;45.440;9.178;2023-05-07T06:54:41;24.70;85.40
32400;DHT22;45045;45.440;9.178;2023-05-07T06:57:07;24.80;85.40
32400;DHT22;45045;45.440;9.178;2023-05-07T06:59:32;24.80;85.40
32400;DHT22;45045;45.440;9.178;2023-05-07T07:01:58;24.80;85.20
32400;DHT22;45045;45.440;9.178;2023-05-07T07:04:24;24.80;85.10
32400;DHT22;45045;45.440;9.178;2023-05-07T07:06:53;24.80;85.10
32400;DHT22;45045;45.440;9.178;2023-05-07T07:09:19;24.90;85.00
32400;DHT22;45045;45.440;9.178;2023-05-07T07:11:45;24.90;85.00
32400;DHT22;45045;45.440;9.178;2023-05-07T07:14:11;24.90;85.10
32400;DHT22;45045;45.440;9.178;2023-05-07T07:16:37;24.90;85.00
32400;DHT22;45045;45.440;9.178;2023-05-07T07:19:02;25.00;84.40
32400;DHT22;45045;45.440;9.178;2023-05-07T07:21:28;25.00;84.10
32400;DHT22;45045;45.440;9.178;2023-05-07T07:23:54;25.00;84.30
32400;DHT22;45045;45.440;9.178;2023-05-07T07:26:19;25.00;84.50
32400;DHT22;45045;45.440;9.178;2023-05-07T07:28:46;25.00;84.50
32400;DHT22;45045;45.440;9.178;2023-05-07T07:31:12;25.00;84.60
32400;DHT22;45045;45.440;9.178;2023-05-07T07:33:38;25.00;84.50
32400;DHT22;45045;45.440;9.178;2023-05-07T07:36:05;25.00;84.10
32400;DHT22;45045;45.440;9.178;2023-05-07T07:38:31;24.90;84.30
32400;DHT22;45045;45.440;9.178;2023-05-07T07:40:57;25.00;84.80
32400;DHT22;45045;45.440;9.178;2023-05-07T07:43:23;24.90;85.10
32400;DHT22;45045;45.440;9.178;2023-05-07T07:45:49;24.90;85.20
32400;DHT22;45045;45.440;9.178;2023-05-07T07:48:15;25.00;85.20
32400;DHT22;45045;45.440;9.178;2023-05-07T07:50:40;25.00;84.90
32400;DHT22;45045;45.440;9.178;2023-05-07T07:53:06;25.10;85.20
32400;DHT22;45045;45.440;9.178;2023-05-07T07:55:32;25.10;85.10
32400;DHT22;45045;45.440;9.178;2023-05-07T07:57:58;25.10;84.50
32400;DHT22;45045;45.440;9.178;2023-05-07T08:00:24;25.00;85.00
32400;DHT22;45045;45.440;9.178;2023-05-07T08:02:49;25.20;84.40
32400;DHT22;45045;45.440;9.178;2023-05-07T08:05:15;25.30;83.80
32400;DHT22;45045;45.440;9.178;2023-05-07T08:07:41;25.20;84.00
32400;DHT22;45045;45.440;9.178;2023-05-07T08:10:06;25.10;84.30
32400;DHT22;45045;45.440;9.178;2023-05-07T08:12:32;25.10;84.50
32400;DHT22;45045;45.440;9.178;2023-05-07T08:14:58;25.20;82.30
32400;DHT22;45045;45.440;9.178;2023-05-07T08:17:24;25.20;82.10
32400;DHT22;45045;45.440;9.178;2023-05-07T08:19:50;25.40;82.60
32400;DHT22;45045;45.440;9.178;2023-05-07T08:22:15;25.50;82.10
32400;DHT22;45045;45.440;9.178;2023-05-07T08:24:43;25.30;83.00
32400;DHT22;45045;45.440;9.178;2023-05-07T08:27:10;25.30;83.50
32400;DHT22;45045;45.440;9.178;2023-05-07T08:29:35;25.50;82.60
32400;DHT22;45045;45.440;9.178;2023-05-07T08:32:01;25.50;82.40
32400;DHT22;45045;45.440;9.178;2023-05-07T08:34:27;25.30;83.00
32400;DHT22;45045;45.440;9.178;2023-05-07T08:36:53;25.40;84.10
32400;DHT22;45045;45.440;9.178;2023-05-07T08:39:18;25.30;84.60
32400;DHT22;45045;45.440;9.178;2023-05-07T08:41:45;25.30;85.80
32400;DHT22;45045;45.440;9.178;2023-05-07T08:44:14;25.50;85.00
32400;DHT22;45045;45.440;9.178;2023-05-07T08:46:41;25.60;83.60
32400;DHT22;45045;45.440;9.178;2023-05-07T08:49:07;25.70;79.50
32400;DHT22;45045;45.440;9.178;2023-05-07T08:51:34;25.80;81.90
32400;DHT22;45045;45.440;9.178;2023-05-07T08:54:01;25.80;81.20
32400;DHT22;45045;45.440;9.178;2023-05-07T08:56:27;25.70;82.40
32400;DHT22;45045;45.440;9.178;2023-05-07T08:58:53;25.70;82.80
32400;DHT22;45045;45.440;9.178;2023-05-07T09:01:24;25.70;83.20
32400;DHT22;45045;45.440;9.178;2023-05-07T09:03:51;25.70;82.80
32400;DHT22;45045;45.440;9.178;2023-05-07T09:06:17;25.80;83.30
32400;DHT22;45045;45.440;9.178;2023-05-07T09:08:49;25.80;82.70
32400;DHT22;45045;45.440;9.178;2023-05-07T09:11:16;25.80;82.40
32400;DHT22;45045;45.440;9.178;2023-05-07T09:13:44;25.80;83.00
32400;DHT22;45045;45.440;9.178;2023-05-07T09:16:11;25.80;82.60
32400;DHT22;45045;45.440;9.178;2023-05-07T09:18:44;25.80;82.40
32400;DHT22;45045;45.440;9.178;2023-05-07T09:21:15;25.70;82.90
32400;DHT22;45045;45.440;9.178;2023-05-07T09:23:41;25.90;84.10
32400;DHT22;45045;45.440;9.178;2023-05-07T09:26:07;25.90;82.30
32400;DHT22;45045;45.440;9.178;2023-05-07T09:28:40;26.10;82.40
32400;DHT22;45045;45.440;9.178;2023-05-07T09:31:10;26.00;82.30
32400;DHT22;45045;45.440;9.178;2023-05-07T09:33:36;25.90;82.50
32400;DHT22;45045;45.440;9.178;2023-05-07T09:36:06;26.00;83.10
32400;DHT22;45045;45.440;9.178;2023-05-07T09:38:33;26.10;82.50
32400;DHT22;45045;45.440;9.178;2023-05-07T09:41:10;26.20;82.20
32400;DHT22;45045;45.440;9.178;2023-05-07T09:43:37;26.10;82.80
32400;DHT22;45045;45.440;9.178;2023-05-07T09:46:13;26.20;82.40
32400;DHT22;45045;45.440;9.178;2023-05-07T09:48:42;26.30;82.20
32400;DHT22;45045;45.440;9.178;2023-05-07T09:51:38;26.20;82.40
32400;DHT22;45045;45.440;9.178;2023-05-07T09:54:05;26.10;83.30
32400;DHT22;45045;45.440;9.178;2023-05-07T09:56:32;26.10;84.10
32400;DHT22;45045;45.440;9.178;2023-05-07T09:59:00;26.20;84.60
32400;DHT22;45045;45.440;9.178;2023-05-07T10:01:27;26.50;83.40
32400;DHT22;45045;45.440;9.178;2023-05-07T10:03:53;26.70;82.40
32400;DHT22;45045;45.440;9.178;2023-05-07T10:06:20;26.80;82.20
32400;DHT22;45045;45.440;9.178;2023-05-07T10:08:46;26.90;82.00
32400;DHT22;45045;45.440;9.178;2023-05-07T10:11:14;27.00;82.00
32400;DHT22;45045;45.440;9.178;2023-05-07T10:13:42;27.20;81.80
32400;DHT22;45045;45.440;9.178;2023-05-07T10:16:08;27.10;81.60
32400;DHT22;45045;45.440;9.178;2023-05-07T10:18:34;27.20;81.40
32400;DHT22;45045;45.440;9.178;2023-05-07T10:21:21;27.20;80.90
32400;DHT22;45045;45.440;9.178;2023-05-07T10:24:04;27.30;80.50
32400;DHT22;45045;45.440;9.178;2023-05-07T10:26:36;27.30;80.40
32400;DHT22;45045;45.440;9.178;2023-05-07T10:29:15;27.30;80.40
32400;DHT22;45045;45.440;9.178;2023-05-07T10:34:39;27.30;80.60
32400;DHT22;45045;45.440;9.178;2023-05-07T10:37:06;27.40;80.50
32400;DHT22;45045;45.440;9.178;2023-05-07T10:39:32;27.40;79.70
32400;DHT22;45045;45.440;9.178;2023-05-07T10:42:08;27.30;79.60
32400;DHT22;45045;45.440;9.178;2023-05-07T10:44:34;27.40;79.60
32400;DHT22;45045;45.440;9.178;2023-05-07T10:47:11;27.60;78.30
32400;DHT22;45045;45.440;9.178;2023-05-07T10:52:31;27.80;77.90
32400;DHT22;45045;45.440;9.178;2023-05-07T10:55:33;27.70;78.10
32400;DHT22;45045;45.440;9.178;2023-05-07T11:00:47;27.80;77.30
32400;DHT22;45045;45.440;9.178;2023-05-07T11:03:13;27.90;78.00
32400;DHT22;45045;45.440;9.178;2023-05-07T11:05:41;27.90;77.80
32400;DHT22;45045;45.440;9.178;2023-05-07T11:08:07;28.00;77.00
32400;DHT22;45045;45.440;9.178;2023-05-07T11:10:53;28.10;77.00
32400;DHT22;45045;45.440;9.178;2023-05-07T11:13:45;27.90;77.70
32400;DHT22;45045;45.440;9.178;2023-05-07T11:16:21;28.10;78.70
32400;DHT22;45045;45.440;9.178;2023-05-07T11:18:52;28.40;77.10
32400;DHT22;45045;45.440;9.178;2023-05-07T11:21:35;28.50;76.70
32400;DHT22;45045;45.440;9.178;2023-05-07T11:24:03;28.50;75.50
32400;DHT22;45045;45.440;9.178;2023-05-07T11:26:31;28.70;76.20
32400;DHT22;45045;45.440;9.178;2023-05-07T11:28:57;28.70;75.30
32400;DHT22;45045;45.440;9.178;2023-05-07T11:31:26;28.70;74.60
32400;DHT22;45045;45.440;9.178;2023-05-07T11:33:54;28.60;75.00
32400;DHT22;45045;45.440;9.178;2023-05-07T11:36:22;28.50;75.30
32400;DHT22;45045;45.440;9.178;2023-05-07T11:38:48;28.50;75.60
32400;DHT22;45045;45.440;9.178;2023-05-07T11:41:16;28.40;76.20
32400;DHT22;45045;45.440;9.178;2023-05-07T11:43:58;28.50;76.00
32400;DHT22;45045;45.440;9.178;2023-05-07T11:46:24;28.60;75.00
32400;DHT22;45045;45.440;9.178;2023-05-07T11:48:49;28.50;75.50
32400;DHT22;45045;45.440;9.178;2023-05-07T11:51:20;28.60;75.30
32400;DHT22;45045;45.440;9.178;2023-05-07T11:53:46;28.60;75.10
32400;DHT22;45045;45.440;9.178;2023-05-07T11:56:15;28.80;74.60
32400;DHT22;45045;45.440;9.178;2023-05-07T11:58:42;28.60;75.00
32400;DHT22;45045;45.440;9.178;2023-05-07T12:01:09;28.60;76.10
32400;DHT22;45045;45.440;9.178;2023-05-07T12:03:39;28.60;75.40
32400;DHT22;45045;45.440;9.178;2023-05-07T12:06:08;28.80;74.20
32400;DHT22;45045;45.440;9.178;2023-05-07T12:08:36;28.90;73.40
32400;DHT22;45045;45.440;9.178;2023-05-07T12:11:03;29.00;73.20
32400;DHT22;45045;45.440;9.178;2023-05-07T12:13:32;29.00;71.20
32400;DHT22;45045;45.440;9.178;2023-05-07T12:15:58;28.90;73.20
32400;DHT22;45045;45.440;9.178;2023-05-07T12:18:23;29.00;72.40
32400;DHT22;45045;45.440;9.178;2023-05-07T12:20:50;29.00;71.90
32400;DHT22;45045;45.440;9.178;2023-05-07T12:23:16;28.90;71.90
32400;DHT22;45045;45.440;9.178;2023-05-07T12:25:43;28.80;73.10
32400;DHT22;45045;45.440;9.178;2023-05-07T12:28:18;28.80;73.40
32400;DHT22;45045;45.440;9.178;2023-05-07T12:30:47;28.80;73.20
32400;DHT22;45045;45.440;9.178;2023-05-07T12:33:17;28.90;71.90
32400;DHT22;45045;45.440;9.178;2023-05-07T12:35:43;29.10;69.60
32400;DHT22;45045;45.440;9.178;2023-05-07T12:38:15;29.10;68.60
32400;DHT22;45045;45.440;9.178;2023-05-07T12:40:44;29.10;69.50
32400;DHT22;45045;45.440;9.178;2023-05-07T12:43:21;29.10;67.50
32400;DHT22;45045;45.440;9.178;2023-05-07T12:45:49;29.20;68.20
32400;DHT22;45045;45.440;9.178;2023-05-07T12:48:15;29.20;65.70
32400;DHT22;45045;45.440;9.178;2023-05-07T12:50:42;29.10;67.50
32400;DHT22;45045;45.440;9.178;2023-05-07T12:53:11;29.20;66.80
32400;DHT22;45045;45.440;9.178;2023-05-07T12:55:45;29.20;67.90
32400;DHT22;45045;45.440;9.178;2023-05-07T12:58:20;29.10;69.10
32400;DHT22;45045;45.440;9.178;2023-05-07T13:00:50;29.20;69.10
32400;DHT22;45045;45.440;9.178;2023-05-07T13:03:37;29.40;66.30
32400;DHT22;45045;45.440;9.178;2023-05-07T13:06:05;29.50;66.10
32400;DHT22;45045;45.440;9.178;2023-05-07T13:08:36;29.60;65.50
32400;DHT22;45045;45.440;9.178;2023-05-07T13:11:03;29.60;64.10
32400;DHT22;45045;45.440;9.178;2023-05-07T13:13:35;29.60;65.40
32400;DHT22;45045;45.440;9.178;2023-05-07T13:16:02;29.60;64.80
32400;DHT22;45045;45.440;9.178;2023-05-07T13:18:30;29.50;63.50
32400;DHT22;45045;45.440;9.178;2023-05-07T13:20:56;29.60;63.50
32400;DHT22;45045;45.440;9.178;2023-05-07T13:23:22;29.50;63.40
32400;DHT22;45045;45.440;9.178;2023-05-07T13:25:48;29.60;63.30
32400;DHT22;45045;45.440;9.178;2023-05-07T13:28:15;29.70;63.10
32400;DHT22;45045;45.440;9.178;2023-05-07T13:30:41;29.60;63.90
32400;DHT22;45045;45.440;9.178;2023-05-07T13:33:07;29.60;62.70
32400;DHT22;45045;45.440;9.178;2023-05-07T13:35:33;29.70;62.60
32400;DHT22;45045;45.440;9.178;2023-05-07T13:37:59;29.70;62.10
32400;DHT22;45045;45.440;9.178;2023-05-07T13:40:25;29.70;61.50
32400;DHT22;45045;45.440;9.178;2023-05-07T13:42:51;29.60;61.30
32400;DHT22;45045;45.440;9.178;2023-05-07T13:45:18;29.70;61.50
32400;DHT22;45045;45.440;9.178;2023-05-07T13:47:44;29.60;60.70
32400;DHT22;45045;45.440;9.178;2023-05-07T13:50:10;29.40;64.10
32400;DHT22;45045;45.440;9.178;2023-05-07T13:52:41;29.50;60.70
32400;DHT22;45045;45.440;9.178;2023-05-07T13:55:09;29.60;62.10
32400;DHT22;45045;45.440;9.178;2023-05-07T13:57:36;29.60;60.50
32400;DHT22;45045;45.440;9.178;2023-05-07T14:00:03;29.70;61.70
32400;DHT22;45045;45.440;9.178;2023-05-07T14:02:30;29.80;60.70
32400;DHT22;45045;45.440;9.178;2023-05-07T14:04:56;29.90;60.20
32400;DHT22;45045;45.440;9.178;2023-05-07T14:07:22;30.00;60.30
32400;DHT22;45045;45.440;9.178;2023-05-07T14:09:48;29.60;63.20
32400;DHT22;45045;45.440;9.178;2023-05-07T14:12:15;29.80;60.40
32400;DHT22;45045;45.440;9.178;2023-05-07T14:14:40;29.80;59.40
32400;DHT22;45045;45.440;9.178;2023-05-07T14:17:06;29.70;59.20
32400;DHT22;45045;45.440;9.178;2023-05-07T14:19:33;29.80;59.70
32400;DHT22;45045;45.440;9.178;2023-05-07T14:21:59;29.80;59.50
32400;DHT22;45045;45.440;9.178;2023-05-07T14:24:25;29.90;58.80
32400;DHT22;45045;45.440;9.178;2023-05-07T14:26:51;29.90;59.10
32400;DHT22;45045;45.440;9.178;2023-05-07T14:29:17;29.80;59.60
32400;DHT22;45045;45.440;9.178;2023-05-07T14:31:44;29.80;59.60
32400;DHT22;45045;45.440;9.178;2023-05-07T14:34:10;29.70;59.20
32400;DHT22;45045;45.440;9.178;2023-05-07T14:36:36;29.70;59.60
32400;DHT22;45045;45.440;9.178;2023-05-07T14:39:03;29.60;58.70
32400;DHT22;45045;45.440;9.178;2023-05-07T14:41:29;29.60;58.10
32400;DHT22;45045;45.440;9.178;2023-05-07T14:43:56;29.70;58.30
32400;DHT22;45045;45.440;9.178;2023-05-07T14:46:24;29.70;57.90
32400;DHT22;45045;45.440;9.178;2023-05-07T14:48:50;29.70;58.40
32400;DHT22;45045;45.440;9.178;2023-05-07T14:51:16;29.60;59.90
32400;DHT22;45045;45.440;9.178;2023-05-07T14:53:42;29.70;59.10
32400;DHT22;45045;45.440;9.178;2023-05-07T14:56:08;29.80;59.50
32400;DHT22;45045;45.440;9.178;2023-05-07T14:58:34;29.90;59.40
32400;DHT22;45045;45.440;9.178;2023-05-07T15:01:00;29.90;59.20
32400;DHT22;45045;45.440;9.178;2023-05-07T15:03:27;30.00;59.20
32400;DHT22;45045;45.440;9.178;2023-05-07T15:05:53;30.00;58.90
32400;DHT22;45045;45.440;9.178;2023-05-07T15:08:18;30.00;59.00
32400;DHT22;45045;45.440;9.178;2023-05-07T15:10:45;30.00;59.10
32400;DHT22;45045;45.440;9.178;2023-05-07T15:13:11;30.00;59.60
32400;DHT22;45045;45.440;9.178;2023-05-07T15:15:38;30.00;59.20
32400;DHT22;45045;45.440;9.178;2023-05-07T15:18:04;30.00;59.60
32400;DHT22;45045;45.440;9.178;2023-05-07T15:20:31;30.10;59.70
32400;DHT22;45045;45.440;9.178;2023-05-07T15:22:56;30.10;58.40
32400;DHT22;45045;45.440;9.178;2023-05-07T15:25:23;29.90;59.40
32400;DHT22;45045;45.440;9.178;2023-05-07T15:27:48;29.80;60.30
32400;DHT22;45045;45.440;9.178;2023-05-07T15:30:14;29.70;59.30
32400;DHT22;45045;45.440;9.178;2023-05-07T15:32:41;29.70;60.00
32400;DHT22;45045;45.440;9.178;2023-05-07T15:35:07;29.70;60.20
32400;DHT22;45045;45.440;9.178;2023-05-07T15:37:34;29.60;60.00